Time;durP1;ratioP1;P1;durP2;ratioP2;P2;SDS_P1;SDS_P2;PMS_P1;PMS_P2;Temp;Humidity;BMP_temperature;BMP_pressure;BME280_temperature;BME280_humidity;BME280_pressure;Samples;Min_cycle;Max_cycle;Signal;HPM_P1;HPM_P2
2023/07/16 00:01:23;;;;;;;6.97;2.15;;;;;;;25.18;81.38;100291.31;30864748;28;20500;-76
2023/07/16 00:16:25;;;;;;;9.05;3.53;;;;;;;24.98;83.33;100300.75;30856952;28;20047;-76
2023/07/16 00:31:27;;;;;;;4.07;2.22;;;;;;;24.95;83.21;100301.03;30855189;28;20130;-76
2023/07/16 00:46:29;;;;;;;3.15;2.15;;;;;;;25.09;82.90;100294.38;30861212;28;20146;-76
2023/07/16 01:01:32;;;;;;;4.43;2.53;;;;;;;24.69;85.87;100295.81;30885034;28;20061;-76
2023/07/16 01:16:34;;;;;;;6.95;2.85;;;;;;;24.54;87.74;100281.53;30876855;28;20485;-76
2023/07/16 01:31:37;;;;;;;4.15;2.75;;;;;;;24.54;88.38;100295.41;30872964;28;20109;-75
2023/07/16 01:46:39;;;;;;;7.00;2.63;;;;;;;24.32;90.62;100293.44;30874678;28;20055;-76
2023/07/16 02:01:41;;;;;;;4.63;2.67;;;;;;;24.10;92.52;100297.72;30876542;28;20205;-75
2023/07/16 02:16:43;;;;;;;5.88;3.40;;;;;;;23.92;93.16;100297.50;30871747;28;20061;-75
2023/07/16 02:31:48;;;;;;;9.23;3.58;;;;;;;23.86;95.55;100300.28;30863773;28;20087;-75
2023/07/16 02:46:50;;;;;;;5.80;2.78;;;;;;;24.51;92.08;100302.72;30868922;28;20073;-75
2023/07/16 03:01:53;;;;;;;4.78;2.92;;;;;;;24.73;90.71;100315.75;30867940;28;20512;-76
2023/07/16 03:16:55;;;;;;;7.43;3.50;;;;;;;24.85;89.74;100330.31;30867601;28;20059;-75
2023/07/16 03:31:57;;;;;;;7.60;3.72;;;;;;;25.02;91.00;100336.59;30863135;28;20083;-77
2023/07/16 03:46:59;;;;;;;6.07;3.90;;;;;;;25.35;90.87;100355.84;30869490;28;20145;-75
2023/07/16 04:02:01;;;;;;;7.03;4.60;;;;;;;25.84;89.68;100361.59;30857172;28;20496;-73
2023/07/16 04:17:04;;;;;;;6.50;3.85;;;;;;;26.48;87.16;100378.72;30856423;28;20086;-73
2023/07/16 04:32:06;;;;;;;10.87;4.43;;;;;;;27.29;85.16;100393.47;30874142;28;20517;-73
2023/07/16 04:47:08;;;;;;;6.83;4.63;;;;;;;27.73;80.64;100403.25;30880054;28;20141;-73
2023/07/16 05:02:10;;;;;;;6.17;3.67;;;;;;;28.36;76.34;100400.94;30879742;28;20042;-74
2023/07/16 05:17:13;;;;;;;6.80;3.87;;;;;;;28.79;73.48;100401.41;30870517;28;20142;-73
2023/07/16 05:32:16;;;;;;;5.43;3.97;;;;;;;29.57;70.43;100412.25;30871421;28;20062;-75
2023/07/16 05:47:17;;;;;;;;;;;;;;;30.21;66.13;100408.97;30870461;28;20065;-73
2023/07/16 06:02:20;;;;;;;6.72;3.70;;;;;;;30.72;63.59;100423.88;30869163;28;20327;-74
2023/07/16 06:17:22;;;;;;;10.02;4.55;;;;;;;30.79;59.38;100426.00;30870252;28;20420;-73
2023/07/16 06:32:24;;;;;;;7.82;4.05;;;;;;;31.13;56.43;100425.81;30861775;28;20086;-74
2023/07/16 06:47:26;;;;;;;5.97;3.17;;;;;;;31.77;51.67;100429.75;30856715;28;20078;-71
2023/07/16 07:02:29;;;;;;;5.45;3.03;;;;;;;32.14;49.49;100426.22;30864206;28;20058;-73
2023/07/16 07:17:31;;;;;;;6.15;3.50;;;;;;;32.52;47.24;100422.69;30854643;28;20057;-73
2023/07/16 07:32:33;;;;;;;5.47;2.85;;;;;;;33.01;44.58;100418.63;30855045;28;20047;-74
2023/07/16 07:47:35;;;;;;;8.32;2.70;;;;;;;33.23;44.16;100437.47;30856334;28;20699;-73
2023/07/16 08:02:37;;;;;;;4.25;2.00;;;;;;;33.87;41.75;100414.25;30865109;28;20421;-73
2023/07/16 08:17:44;;;;;;;4.30;1.20;;;;;;;33.54;40.61;100419.13;30878748;28;20142;-73
2023/07/16 08:32:46;;;;;;;7.50;2.10;;;;;;;34.31;39.29;100404.50;30878020;28;20054;-73
2023/07/16 08:47:48;;;;;;;7.97;5.75;;;;;;;34.61;38.68;100397.81;30873199;28;20059;-72
2023/07/16 09:02:52;;;;;;;3.42;1.10;;;;;;;34.72;37.23;100391.69;30874097;28;20062;-76
2023/07/16 09:17:54;;;;;;;1.98;1.20;;;;;;;35.35;37.35;100403.16;30872276;28;20059;-74
2023/07/16 09:32:57;;;;;;;2.22;1.23;;;;;;;35.48;34.93;100399.97;30871189;28;20090;-74
2023/07/16 09:47:59;;;;;;;2.13;1.45;;;;;;;36.31;35.93;100390.78;30871019;28;20055;-77
2023/07/16 10:03:01;;;;;;;4.03;1.50;;;;;;;36.83;34.67;100391.13;30872839;28;20047;-78
2023/07/16 10:18:03;;;;;;;4.22;1.33;;;;;;;37.54;32.89;100374.28;30873879;28;20082;-76
2023/07/16 10:33:12;;;;;;;8.10;6.25;;;;;;;37.68;33.17;100390.78;30874458;28;20051;-77
2023/07/16 10:48:15;;;;;;;1.92;1.40;;;;;;;38.18;31.79;100382.94;30865624;28;20062;-73
2023/07/16 11:03:17;;;;;;;2.30;1.40;;;;;;;38.32;31.03;100376.69;30864451;28;20039;-75
2023/07/16 11:18:25;;;;;;;3.50;1.65;;;;;;;37.80;30.21;100368.94;30860311;28;20055;-73
2023/07/16 11:33:35;;;;;;;3.47;1.40;;;;;;;36.12;32.07;100383.72;30854085;28;20047;-74
2023/07/16 11:48:37;;;;;;;2.90;1.80;;;;;;;34.66;31.82;100363.75;30852139;28;20051;-73
2023/07/16 12:03:39;;;;;;;2.58;1.67;;;;;;;33.80;35.33;100370.00;30860555;28;20126;-75
2023/07/16 12:18:41;;;;;;;7.93;2.80;;;;;;;33.45;36.09;100369.13;30853964;28;20062;-75
2023/07/16 12:33:43;;;;;;;11.38;5.28;;;;;;;33.45;36.13;100351.47;30856213;28;20130;-75
2023/07/16 12:48:45;;;;;;;8.52;2.78;;;;;;;32.94;36.18;100360.38;30859910;28;20830;-73
2023/07/16 13:03:48;;;;;;;6.57;2.42;;;;;;;32.81;37.36;100353.69;30872317;28;20109;-74
2023/07/16 13:18:50;;;;;;;3.20;2.15;;;;;;;32.88;37.48;100343.69;30867713;28;20039;-75
2023/07/16 13:33:52;;;;;;;4.20;2.20;;;;;;;32.45;38.62;100351.13;30867331;28;20448;-73
2023/07/16 13:48:54;;;;;;;3.20;1.52;;;;;;;32.43;38.62;100336.16;30867092;28;20074;-73
2023/07/16 14:04:00;;;;;;;18.20;12.45;;;;;;;32.42;38.48;100345.91;30866592;28;20133;-74
2023/07/16 14:19:02;;;;;;;2.50;1.70;;;;;;;32.04;38.65;100352.31;30865819;28;20062;-74
2023/07/16 14:34:04;;;;;;;3.53;2.15;;;;;;;31.64;39.10;100351.34;30862586;28;20077;-74
2023/07/16 14:49:06;;;;;;;6.43;2.38;;;;;;;31.32;39.19;100352.59;30858786;28;20066;-73
2023/07/16 15:04:09;;;;;;;5.95;2.13;;;;;;;31.14;40.30;100364.91;30861174;28;20070;-73
2023/07/16 15:19:11;;;;;;;8.32;3.45;;;;;;;31.02;40.48;100358.84;30859745;28;20105;-75
2023/07/16 15:34:14;;;;;;;2.95;1.52;;;;;;;30.89;40.67;100363.84;30853399;28;20053;-73
2023/07/16 15:49:17;;;;;;;2.63;1.50;;;;;;;30.93;40.67;100358.63;30856144;28;20047;-74
2023/07/16 16:04:19;;;;;;;3.72;1.60;;;;;;;30.82;41.24;100354.84;30855365;28;20054;-73
2023/07/16 16:19:23;;;;;;;3.85;1.35;;;;;;;30.71;41.58;100357.94;30851592;28;20189;-72
2023/07/16 16:34:25;;;;;;;7.22;4.18;;;;;;;30.39;41.93;100361.13;30875746;28;20065;-75
2023/07/16 16:49:27;;;;;;;6.97;2.60;;;;;;;30.25;42.51;100370.16;30878265;28;20133;-74
2023/07/16 17:04:29;;;;;;;4.28;1.98;;;;;;;29.96;43.42;100370.13;30879599;28;20074;-72
2023/07/16 17:19:33;;;;;;;7.20;2.25;;;;;;;29.64;44.32;100387.16;30868604;28;20162;-74
2023/07/16 17:34:36;;;;;;;3.92;2.22;;;;;;;29.19;45.04;100395.78;30868903;28;20089;-74
2023/07/16 17:49:39;;;;;;;9.05;3.78;;;;;;;28.90;46.34;100408.09;30869481;28;20070;-73
2023/07/16 18:04:42;;;;;;;6.10;3.47;;;;;;;28.71;46.75;100431.28;30867461;28;20081;-76
2023/07/16 18:19:44;;;;;;;5.15;3.08;;;;;;;28.47;47.39;100439.84;30865119;28;20497;-75
2023/07/16 18:34:46;;;;;;;;;;;;;;;28.31;49.07;100455.63;30866460;28;20053;-72
2023/07/16 18:49:53;;;;;;;5.97;2.72;;;;;;;28.23;48.40;100453.97;30863204;28;19925;-75
2023/07/16 19:04:55;;;;;;;13.43;5.38;;;;;;;28.09;48.70;100455.97;30864934;28;20058;-77
2023/07/16 19:19:58;;;;;;;6.17;2.33;;;;;;;27.71;49.77;100444.84;30859590;28;20089;-75
2023/07/16 19:35:01;;;;;;;4.38;1.95;;;;;;;27.75;49.59;100450.13;30856581;28;20161;-76
2023/07/16 19:50:05;;;;;;;4.95;2.40;;;;;;;27.75;50.50;100450.13;30856884;28;20054;-72
2023/07/16 20:05:08;;;;;;;6.50;1.85;;;;;;;27.90;50.27;100444.06;30859740;28;20058;-73
2023/07/16 20:20:11;;;;;;;3.93;1.70;;;;;;;27.68;50.71;100445.16;30851104;28;20386;-72
2023/07/16 20:35:13;;;;;;;34.25;18.95;;;;;;;27.43;51.23;100439.63;30854724;28;20065;-74
2023/07/16 20:50:18;;;;;;;3.93;2.03;;;;;;;27.41;51.77;100444.97;30855046;28;20051;-74
2023/07/16 21:05:22;;;;;;;4.70;2.60;;;;;;;27.46;51.59;100441.38;30852437;28;20471;-75
2023/07/16 21:20:28;;;;;;;5.20;2.88;;;;;;;27.36;51.98;100451.41;30875359;28;20051;-75
2023/07/16 21:35:31;;;;;;;6.80;3.10;;;;;;;27.44;52.11;100455.09;30874187;28;20082;-75
2023/07/16 21:50:33;;;;;;;4.07;1.90;;;;;;;27.05;52.61;100443.69;30872507;28;20101;-75
2023/07/16 22:05:35;;;;;;;4.23;1.33;;;;;;;26.77;53.17;100439.16;30871438;28;20138;-74
2023/07/16 22:20:37;;;;;;;4.20;2.17;;;;;;;26.65;53.57;100437.78;30867966;28;20082;-74
2023/07/16 22:35:42;;;;;;;5.20;3.37;;;;;;;26.37;53.99;100440.06;30861699;28;20139;-73
2023/07/16 22:50:46;;;;;;;2.95;1.65;;;;;;;26.31;54.58;100442.91;30866518;28;20053;-74
2023/07/16 23:05:48;;;;;;;3.67;1.52;;;;;;;26.09;55.14;100443.06;30863101;28;20433;-73
2023/07/16 23:20:51;;;;;;;8.18;1.85;;;;;;;26.00;55.73;100435.78;30861500;28;20050;-74
2023/07/16 23:35:53;;;;;;;4.23;1.63;;;;;;;25.98;56.36;100427.22;30859014;28;20143;-74
2023/07/16 23:50:55;;;;;;;2.57;1.40;;;;;;;25.86;57.08;100430.59;30859226;28;20077;-75
